sensor_id;sensor_type;location;lat;lon;timestamp;P1;durP1;ratioP1;P2;durP2;ratioP2
53271;SDS011;39160;48.580;7.756;2023-05-07T00:00:34;4.25;;;2.45;;
53271;SDS011;39160;48.580;7.756;2023-05-07T00:05:25;3.78;;;2.80;;
53271;SDS011;39160;48.580;7.756;2023-05-07T00:10:15;3.63;;;2.50;;
53271;SDS011;39160;48.580;7.756;2023-05-07T00:15:06;3.53;;;2.45;;
53271;SDS011;39160;48.580;7.756;2023-05-07T00:19:57;3.50;;;2.35;;
53271;SDS011;39160;48.580;7.756;2023-05-07T00:24:48;2.45;;;2.22;;
53271;SDS011;39160;48.580;7.756;2023-05-07T00:29:38;3.42;;;2.72;;
53271;SDS011;39160;48.580;7.756;2023-05-07T00:34:29;4.88;;;3.05;;
53271;SDS011;39160;48.580;7.756;2023-05-07T00:39:20;5.30;;;2.90;;
53271;SDS011;39160;48.580;7.756;2023-05-07T00:44:10;4.55;;;2.60;;
53271;SDS011;39160;48.580;7.756;2023-05-07T00:49:01;4.20;;;2.63;;
53271;SDS011;39160;48.580;7.756;2023-05-07T00:53:52;6.47;;;2.33;;
53271;SDS011;39160;48.580;7.756;2023-05-07T00:58:43;4.25;;;2.78;;
53271;SDS011;39160;48.580;7.756;2023-05-07T01:03:34;3.72;;;2.42;;
53271;SDS011;39160;48.580;7.756;2023-05-07T01:08:25;3.42;;;2.78;;
53271;SDS011;39160;48.580;7.756;2023-05-07T01:13:18;3.60;;;2.60;;
53271;SDS011;39160;48.580;7.756;2023-05-07T01:18:10;4.47;;;2.35;;
53271;SDS011;39160;48.580;7.756;2023-05-07T01:23:01;3.65;;;2.58;;
53271;SDS011;39160;48.580;7.756;2023-05-07T01:27:53;2.83;;;2.53;;
53271;SDS011;39160;48.580;7.756;2023-05-07T01:33:06;2.45;;;2.00;;
53271;SDS011;39160;48.580;7.756;2023-05-07T01:37:58;4.63;;;2.25;;
53271;SDS011;39160;48.580;7.756;2023-05-07T01:42:48;3.50;;;2.45;;
53271;SDS011;39160;48.580;7.756;2023-05-07T01:47:39;3.35;;;2.30;;
53271;SDS011;39160;48.580;7.756;2023-05-07T01:52:30;3.67;;;2.67;;
53271;SDS011;39160;48.580;7.756;2023-05-07T01:57:21;3.72;;;2.22;;
53271;SDS011;39160;48.580;7.756;2023-05-07T02:02:12;4.07;;;2.40;;
53271;SDS011;39160;48.580;7.756;2023-05-07T02:07:02;3.75;;;2.05;;
53271;SDS011;39160;48.580;7.756;2023-05-07T02:11:53;4.53;;;2.53;;
53271;SDS011;39160;48.580;7.756;2023-05-07T02:16:43;5.20;;;3.13;;
53271;SDS011;39160;48.580;7.756;2023-05-07T02:21:34;3.70;;;2.80;;
53271;SDS011;39160;48.580;7.756;2023-05-07T02:26:25;3.15;;;2.50;;
53271;SDS011;39160;48.580;7.756;2023-05-07T02:31:15;3.55;;;2.55;;
53271;SDS011;39160;48.580;7.756;2023-05-07T02:36:09;2.85;;;2.28;;
53271;SDS011;39160;48.580;7.756;2023-05-07T02:41:01;4.00;;;2.40;;
53271;SDS011;39160;48.580;7.756;2023-05-07T02:46:01;4.35;;;2.50;;
53271;SDS011;39160;48.580;7.756;2023-05-07T02:50:53;3.05;;;2.22;;
53271;SDS011;39160;48.580;7.756;2023-05-07T02:55:43;5.43;;;2.55;;
53271;SDS011;39160;48.580;7.756;2023-05-07T03:00:34;16.27;;;3.10;;
53271;SDS011;39160;48.580;7.756;2023-05-07T03:05:24;2.70;;;1.95;;
53271;SDS011;39160;48.580;7.756;2023-05-07T03:10:15;2.47;;;2.03;;
53271;SDS011;39160;48.580;7.756;2023-05-07T03:15:06;4.70;;;2.15;;
53271;SDS011;39160;48.580;7.756;2023-05-07T03:19:58;3.88;;;2.97;;
53271;SDS011;39160;48.580;7.756;2023-05-07T03:24:48;3.30;;;2.58;;
53271;SDS011;39160;48.580;7.756;2023-05-07T03:29:39;4.30;;;2.20;;
53271;SDS011;39160;48.580;7.756;2023-05-07T03:34:29;3.42;;;2.47;;
53271;SDS011;39160;48.580;7.756;2023-05-07T03:39:20;5.75;;;2.80;;
53271;SDS011;39160;48.580;7.756;2023-05-07T03:44:11;3.80;;;2.92;;
53271;SDS011;39160;48.580;7.756;2023-05-07T03:49:01;4.50;;;2.13;;
53271;SDS011;39160;48.580;7.756;2023-05-07T03:53:52;3.00;;;1.90;;
53271;SDS011;39160;48.580;7.756;2023-05-07T03:58:43;2.95;;;2.17;;
53271;SDS011;39160;48.580;7.756;2023-05-07T04:03:33;4.07;;;2.65;;
53271;SDS011;39160;48.580;7.756;2023-05-07T04:08:24;3.50;;;2.22;;
53271;SDS011;39160;48.580;7.756;2023-05-07T04:13:15;4.10;;;2.80;;
53271;SDS011;39160;48.580;7.756;2023-05-07T04:18:05;3.40;;;2.47;;
53271;SDS011;39160;48.580;7.756;2023-05-07T04:22:56;3.00;;;2.10;;
53271;SDS011;39160;48.580;7.756;2023-05-07T04:27:47;5.82;;;2.60;;
53271;SDS011;39160;48.580;7.756;2023-05-07T04:32:38;4.10;;;2.65;;
53271;SDS011;39160;48.580;7.756;2023-05-07T04:37:29;5.00;;;2.63;;
53271;SDS011;39160;48.580;7.756;2023-05-07T04:42:22;3.45;;;2.50;;
53271;SDS011;39160;48.580;7.756;2023-05-07T04:47:14;7.40;;;2.55;;
53271;SDS011;39160;48.580;7.756;2023-05-07T04:52:04;4.72;;;2.53;;
53271;SDS011;39160;48.580;7.756;2023-05-07T04:56:55;3.40;;;2.50;;
53271;SDS011;39160;48.580;7.756;2023-05-07T05:01:46;5.10;;;2.80;;
53271;SDS011;39160;48.580;7.756;2023-05-07T05:06:37;6.00;;;3.22;;
53271;SDS011;39160;48.580;7.756;2023-05-07T05:11:27;5.53;;;3.05;;
53271;SDS011;39160;48.580;7.756;2023-05-07T05:16:18;4.57;;;2.97;;
53271;SDS011;39160;48.580;7.756;2023-05-07T05:21:09;4.57;;;2.78;;
53271;SDS011;39160;48.580;7.756;2023-05-07T05:25:59;5.80;;;2.65;;
53271;SDS011;39160;48.580;7.756;2023-05-07T05:30:50;6.80;;;2.75;;
53271;SDS011;39160;48.580;7.756;2023-05-07T05:35:41;5.07;;;3.35;;
53271;SDS011;39160;48.580;7.756;2023-05-07T05:40:32;6.43;;;3.17;;
53271;SDS011;39160;48.580;7.756;2023-05-07T05:45:23;6.03;;;3.15;;
53271;SDS011;39160;48.580;7.756;2023-05-07T05:50:14;4.00;;;3.10;;
53271;SDS011;39160;48.580;7.756;2023-05-07T05:55:06;4.53;;;3.63;;
53271;SDS011;39160;48.580;7.756;2023-05-07T05:59:57;5.22;;;3.15;;
53271;SDS011;39160;48.580;7.756;2023-05-07T06:04:47;4.97;;;3.28;;
53271;SDS011;39160;48.580;7.756;2023-05-07T06:09:38;3.88;;;3.00;;
53271;SDS011;39160;48.580;7.756;2023-05-07T06:14:28;4.60;;;3.00;;
53271;SDS011;39160;48.580;7.756;2023-05-07T06:19:19;8.35;;;4.13;;
53271;SDS011;39160;48.580;7.756;2023-05-07T06:24:13;4.82;;;3.65;;
53271;SDS011;39160;48.580;7.756;2023-05-07T06:29:03;4.63;;;3.38;;
53271;SDS011;39160;48.580;7.756;2023-05-07T06:33:54;4.47;;;3.40;;
53271;SDS011;39160;48.580;7.756;2023-05-07T06:38:45;5.13;;;3.15;;
53271;SDS011;39160;48.580;7.756;2023-05-07T06:43:36;7.05;;;3.60;;
53271;SDS011;39160;48.580;7.756;2023-05-07T06:48:26;4.93;;;3.40;;
53271;SDS011;39160;48.580;7.756;2023-05-07T06:53:17;4.30;;;3.13;;
53271;SDS011;39160;48.580;7.756;2023-05-07T06:58:07;5.85;;;3.38;;
53271;SDS011;39160;48.580;7.756;2023-05-07T07:02:58;4.18;;;3.35;;
53271;SDS011;39160;48.580;7.756;2023-05-07T07:07:50;4.45;;;3.83;;
53271;SDS011;39160;48.580;7.756;2023-05-07T07:12:42;4.57;;;3.80;;
53271;SDS011;39160;48.580;7.756;2023-05-07T07:17:33;5.25;;;3.38;;
53271;SDS011;39160;48.580;7.756;2023-05-07T07:22:25;5.22;;;3.88;;
53271;SDS011;39160;48.580;7.756;2023-05-07T07:27:15;6.35;;;3.70;;
53271;SDS011;39160;48.580;7.756;2023-05-07T07:32:06;4.53;;;3.70;;
53271;SDS011;39160;48.580;7.756;2023-05-07T07:36:57;6.63;;;3.75;;
53271;SDS011;39160;48.580;7.756;2023-05-07T07:41:47;6.60;;;4.47;;
53271;SDS011;39160;48.580;7.756;2023-05-07T07:46:38;5.88;;;4.57;;
53271;SDS011;39160;48.580;7.756;2023-05-07T07:51:29;4.82;;;3.80;;
53271;SDS011;39160;48.580;7.756;2023-05-07T07:56:20;9.15;;;4.90;;
53271;SDS011;39160;48.580;7.756;2023-05-07T08:01:11;6.05;;;4.07;;
53271;SDS011;39160;48.580;7.756;2023-05-07T08:06:02;8.88;;;4.38;;
53271;SDS011;39160;48.580;7.756;2023-05-07T08:10:53;5.70;;;3.85;;
53271;SDS011;39160;48.580;7.756;2023-05-07T08:15:44;8.60;;;4.38;;
53271;SDS011;39160;48.580;7.756;2023-05-07T08:20:35;5.88;;;4.10;;
53271;SDS011;39160;48.580;7.756;2023-05-07T08:25:29;5.05;;;4.25;;
53271;SDS011;39160;48.580;7.756;2023-05-07T08:30:19;4.55;;;3.42;;
53271;SDS011;39160;48.580;7.756;2023-05-07T08:35:10;4.72;;;3.92;;
53271;SDS011;39160;48.580;7.756;2023-05-07T08:40:01;5.28;;;3.70;;
53271;SDS011;39160;48.580;7.756;2023-05-07T08:44:52;5.72;;;3.85;;
53271;SDS011;39160;48.580;7.756;2023-05-07T08:49:47;5.63;;;3.15;;
53271;SDS011;39160;48.580;7.756;2023-05-07T08:54:38;6.32;;;3.90;;
53271;SDS011;39160;48.580;7.756;2023-05-07T08:59:29;4.97;;;4.07;;
53271;SDS011;39160;48.580;7.756;2023-05-07T09:04:20;7.32;;;3.65;;
53271;SDS011;39160;48.580;7.756;2023-05-07T09:09:10;6.15;;;3.72;;
53271;SDS011;39160;48.580;7.756;2023-05-07T09:14:07;5.05;;;3.50;;
53271;SDS011;39160;48.580;7.756;2023-05-07T09:18:58;6.03;;;4.60;;
53271;SDS011;39160;48.580;7.756;2023-05-07T09:23:50;5.43;;;3.78;;
53271;SDS011;39160;48.580;7.756;2023-05-07T09:28:42;4.00;;;3.28;;
53271;SDS011;39160;48.580;7.756;2023-05-07T09:33:33;4.25;;;3.50;;
53271;SDS011;39160;48.580;7.756;2023-05-07T09:38:25;5.20;;;3.35;;
53271;SDS011;39160;48.580;7.756;2023-05-07T09:43:16;5.97;;;3.90;;
53271;SDS011;39160;48.580;7.756;2023-05-07T09:48:07;6.15;;;3.83;;
53271;SDS011;39160;48.580;7.756;2023-05-07T09:52:58;4.93;;;3.72;;
53271;SDS011;39160;48.580;7.756;2023-05-07T09:57:50;5.32;;;4.13;;
53271;SDS011;39160;48.580;7.756;2023-05-07T10:02:42;10.02;;;4.30;;
53271;SDS011;39160;48.580;7.756;2023-05-07T10:07:38;5.28;;;3.92;;
53271;SDS011;39160;48.580;7.756;2023-05-07T10:12:29;4.50;;;3.47;;
53271;SDS011;39160;48.580;7.756;2023-05-07T10:17:27;6.80;;;3.55;;
53271;SDS011;39160;48.580;7.756;2023-05-07T10:22:18;5.57;;;3.05;;
53271;SDS011;39160;48.580;7.756;2023-05-07T10:27:11;3.80;;;2.72;;
53271;SDS011;39160;48.580;7.756;2023-05-07T10:32:09;4.70;;;2.35;;
53271;SDS011;39160;48.580;7.756;2023-05-07T10:37:19;5.45;;;2.63;;
53271;SDS011;39160;48.580;7.756;2023-05-07T10:42:10;5.88;;;2.85;;
53271;SDS011;39160;48.580;7.756;2023-05-07T10:47:05;4.47;;;3.50;;
53271;SDS011;39160;48.580;7.756;2023-05-07T11:07:54;7.40;;;3.80;;
53271;SDS011;39160;48.580;7.756;2023-05-07T11:17:52;4.07;;;3.67;;
53271;SDS011;39160;48.580;7.756;2023-05-07T11:22:45;4.95;;;3.03;;
53271;SDS011;39160;48.580;7.756;2023-05-07T11:27:36;4.57;;;3.25;;
53271;SDS011;39160;48.580;7.756;2023-05-07T11:32:31;4.82;;;3.55;;
53271;SDS011;39160;48.580;7.756;2023-05-07T11:37:22;3.80;;;2.85;;
53271;SDS011;39160;48.580;7.756;2023-05-07T11:42:27;3.83;;;3.05;;
53271;SDS011;39160;48.580;7.756;2023-05-07T11:47:21;3.33;;;2.08;;
53271;SDS011;39160;48.580;7.756;2023-05-07T11:52:12;4.25;;;3.00;;
53271;SDS011;39160;48.580;7.756;2023-05-07T11:57:03;7.40;;;3.92;;
53271;SDS011;39160;48.580;7.756;2023-05-07T12:01:57;3.88;;;3.13;;
53271;SDS011;39160;48.580;7.756;2023-05-07T12:06:49;5.05;;;2.92;;
53271;SDS011;39160;48.580;7.756;2023-05-07T12:11:45;5.95;;;3.22;;
53271;SDS011;39160;48.580;7.756;2023-05-07T12:16:36;4.47;;;2.90;;
53271;SDS011;39160;48.580;7.756;2023-05-07T12:21:29;4.05;;;2.78;;
53271;SDS011;39160;48.580;7.756;2023-05-07T12:26:20;6.32;;;3.17;;
53271;SDS011;39160;48.580;7.756;2023-05-07T12:31:11;5.25;;;2.90;;
53271;SDS011;39160;48.580;7.756;2023-05-07T12:36:05;6.00;;;3.17;;
53271;SDS011;39160;48.580;7.756;2023-05-07T12:40:57;6.47;;;2.72;;
53271;SDS011;39160;48.580;7.756;2023-05-07T12:45:48;3.60;;;2.35;;
53271;SDS011;39160;48.580;7.756;2023-05-07T12:50:40;3.55;;;2.60;;
53271;SDS011;39160;48.580;7.756;2023-05-07T12:55:31;6.25;;;3.00;;
53271;SDS011;39160;48.580;7.756;2023-05-07T13:00:33;3.33;;;2.50;;
53271;SDS011;39160;48.580;7.756;2023-05-07T13:05:25;3.33;;;2.90;;
53271;SDS011;39160;48.580;7.756;2023-05-07T13:10:15;4.10;;;3.10;;
53271;SDS011;39160;48.580;7.756;2023-05-07T13:15:07;3.63;;;2.53;;
53271;SDS011;39160;48.580;7.756;2023-05-07T13:19:58;4.22;;;2.78;;
53271;SDS011;39160;48.580;7.756;2023-05-07T13:24:48;4.47;;;3.33;;
53271;SDS011;39160;48.580;7.756;2023-05-07T13:29:40;7.55;;;4.10;;
53271;SDS011;39160;48.580;7.756;2023-05-07T13:34:30;3.95;;;2.90;;
53271;SDS011;39160;48.580;7.756;2023-05-07T13:39:21;3.78;;;2.20;;
53271;SDS011;39160;48.580;7.756;2023-05-07T13:44:12;4.55;;;3.00;;
53271;SDS011;39160;48.580;7.756;2023-05-07T13:49:02;2.55;;;2.15;;
53271;SDS011;39160;48.580;7.756;2023-05-07T13:53:53;5.07;;;2.63;;
53271;SDS011;39160;48.580;7.756;2023-05-07T13:58:44;2.60;;;2.08;;
53271;SDS011;39160;48.580;7.756;2023-05-07T14:03:34;3.25;;;2.20;;
53271;SDS011;39160;48.580;7.756;2023-05-07T14:08:27;2.30;;;1.73;;
53271;SDS011;39160;48.580;7.756;2023-05-07T14:13:18;4.22;;;2.33;;
53271;SDS011;39160;48.580;7.756;2023-05-07T14:18:09;3.97;;;1.90;;
53271;SDS011;39160;48.580;7.756;2023-05-07T14:22:59;2.65;;;1.70;;
53271;SDS011;39160;48.580;7.756;2023-05-07T14:27:50;3.53;;;1.95;;
53271;SDS011;39160;48.580;7.756;2023-05-07T14:32:40;2.80;;;1.70;;
53271;SDS011;39160;48.580;7.756;2023-05-07T14:37:31;1.52;;;1.42;;
53271;SDS011;39160;48.580;7.756;2023-05-07T14:42:21;1.67;;;1.48;;
53271;SDS011;39160;48.580;7.756;2023-05-07T14:47:12;2.28;;;1.70;;
53271;SDS011;39160;48.580;7.756;2023-05-07T14:52:03;1.58;;;1.48;;
53271;SDS011;39160;48.580;7.756;2023-05-07T14:56:56;2.00;;;1.48;;
53271;SDS011;39160;48.580;7.756;2023-05-07T15:01:46;1.85;;;1.30;;
53271;SDS011;39160;48.580;7.756;2023-05-07T15:06:38;2.55;;;1.70;;
53271;SDS011;39160;48.580;7.756;2023-05-07T15:11:28;1.55;;;1.30;;
53271;SDS011;39160;48.580;7.756;2023-05-07T15:16:19;4.82;;;3.35;;
53271;SDS011;39160;48.580;7.756;2023-05-07T15:21:10;2.25;;;1.90;;
53271;SDS011;39160;48.580;7.756;2023-05-07T15:26:01;2.75;;;2.08;;
53271;SDS011;39160;48.580;7.756;2023-05-07T15:30:52;2.42;;;1.92;;
53271;SDS011;39160;48.580;7.756;2023-05-07T15:35:42;3.50;;;2.00;;
53271;SDS011;39160;48.580;7.756;2023-05-07T15:40:33;2.25;;;1.70;;
53271;SDS011;39160;48.580;7.756;2023-05-07T15:45:27;3.80;;;2.08;;
53271;SDS011;39160;48.580;7.756;2023-05-07T15:50:18;2.35;;;1.92;;
53271;SDS011;39160;48.580;7.756;2023-05-07T15:55:09;2.25;;;1.63;;
53271;SDS011;39160;48.580;7.756;2023-05-07T15:59:59;3.30;;;2.20;;
53271;SDS011;39160;48.580;7.756;2023-05-07T16:04:50;2.15;;;1.73;;
53271;SDS011;39160;48.580;7.756;2023-05-07T16:09:41;4.70;;;2.40;;
53271;SDS011;39160;48.580;7.756;2023-05-07T16:14:32;2.65;;;1.80;;
53271;SDS011;39160;48.580;7.756;2023-05-07T16:19:22;4.10;;;1.88;;
53271;SDS011;39160;48.580;7.756;2023-05-07T16:24:13;1.98;;;1.55;;
53271;SDS011;39160;48.580;7.756;2023-05-07T16:29:04;2.95;;;1.80;;
53271;SDS011;39160;48.580;7.756;2023-05-07T16:33:55;3.53;;;1.63;;
53271;SDS011;39160;48.580;7.756;2023-05-07T16:38:46;3.00;;;1.25;;
53271;SDS011;39160;48.580;7.756;2023-05-07T16:43:37;1.90;;;1.40;;
53271;SDS011;39160;48.580;7.756;2023-05-07T16:48:27;2.53;;;2.33;;
53271;SDS011;39160;48.580;7.756;2023-05-07T16:53:18;2.83;;;1.80;;
53271;SDS011;39160;48.580;7.756;2023-05-07T16:58:09;4.15;;;1.48;;
53271;SDS011;39160;48.580;7.756;2023-05-07T17:03:01;1.90;;;1.30;;
53271;SDS011;39160;48.580;7.756;2023-05-07T17:07:52;3.72;;;1.55;;
53271;SDS011;39160;48.580;7.756;2023-05-07T17:12:44;2.53;;;1.70;;
53271;SDS011;39160;48.580;7.756;2023-05-07T17:17:35;2.38;;;1.80;;
53271;SDS011;39160;48.580;7.756;2023-05-07T17:22:25;1.80;;;1.30;;
53271;SDS011;39160;48.580;7.756;2023-05-07T17:27:16;1.55;;;1.40;;
53271;SDS011;39160;48.580;7.756;2023-05-07T17:32:07;1.73;;;1.33;;
53271;SDS011;39160;48.580;7.756;2023-05-07T17:36:58;5.00;;;1.98;;
53271;SDS011;39160;48.580;7.756;2023-05-07T17:41:48;4.97;;;2.13;;
53271;SDS011;39160;48.580;7.756;2023-05-07T17:46:40;2.78;;;1.80;;
53271;SDS011;39160;48.580;7.756;2023-05-07T17:51:30;2.30;;;1.67;;
53271;SDS011;39160;48.580;7.756;2023-05-07T17:56:21;3.35;;;1.67;;
53271;SDS011;39160;48.580;7.756;2023-05-07T18:01:11;1.77;;;1.48;;
53271;SDS011;39160;48.580;7.756;2023-05-07T18:06:02;2.42;;;1.48;;
53271;SDS011;39160;48.580;7.756;2023-05-07T18:10:53;3.15;;;1.88;;
53271;SDS011;39160;48.580;7.756;2023-05-07T18:15:44;2.42;;;1.42;;
53271;SDS011;39160;48.580;7.756;2023-05-07T18:20:35;3.08;;;1.38;;
53271;SDS011;39160;48.580;7.756;2023-05-07T18:25:25;5.47;;;2.28;;
53271;SDS011;39160;48.580;7.756;2023-05-07T18:30:16;3.42;;;1.50;;
53271;SDS011;39160;48.580;7.756;2023-05-07T18:35:07;2.47;;;1.27;;
53271;SDS011;39160;48.580;7.756;2023-05-07T18:39:58;3.13;;;1.85;;
53271;SDS011;39160;48.580;7.756;2023-05-07T18:44:52;2.38;;;1.65;;
53271;SDS011;39160;48.580;7.756;2023-05-07T18:49:43;4.30;;;1.70;;
53271;SDS011;39160;48.580;7.756;2023-05-07T18:54:34;2.47;;;1.48;;
53271;SDS011;39160;48.580;7.756;2023-05-07T18:59:25;2.50;;;1.73;;
53271;SDS011;39160;48.580;7.756;2023-05-07T19:04:15;2.97;;;1.67;;
53271;SDS011;39160;48.580;7.756;2023-05-07T19:09:07;2.97;;;1.50;;
53271;SDS011;39160;48.580;7.756;2023-05-07T19:13:57;1.83;;;1.30;;
53271;SDS011;39160;48.580;7.756;2023-05-07T19:18:48;3.10;;;1.77;;
53271;SDS011;39160;48.580;7.756;2023-05-07T19:23:39;3.65;;;2.50;;
53271;SDS011;39160;48.580;7.756;2023-05-07T19:28:33;3.97;;;2.80;;
53271;SDS011;39160;48.580;7.756;2023-05-07T19:33:24;3.95;;;2.17;;
53271;SDS011;39160;48.580;7.756;2023-05-07T19:38:14;2.63;;;2.10;;
53271;SDS011;39160;48.580;7.756;2023-05-07T19:43:05;3.80;;;1.45;;
53271;SDS011;39160;48.580;7.756;2023-05-07T19:47:56;3.28;;;1.40;;
53271;SDS011;39160;48.580;7.756;2023-05-07T19:52:46;2.03;;;1.70;;
53271;SDS011;39160;48.580;7.756;2023-05-07T19:57:37;4.57;;;1.85;;
53271;SDS011;39160;48.580;7.756;2023-05-07T20:02:28;3.08;;;2.08;;
53271;SDS011;39160;48.580;7.756;2023-05-07T20:07:18;2.50;;;1.73;;
53271;SDS011;39160;48.580;7.756;2023-05-07T20:12:09;2.60;;;1.60;;
53271;SDS011;39160;48.580;7.756;2023-05-07T20:17:00;3.30;;;1.83;;
53271;SDS011;39160;48.580;7.756;2023-05-07T20:21:50;2.78;;;1.85;;
53271;SDS011;39160;48.580;7.756;2023-05-07T20:26:41;4.95;;;2.95;;
53271;SDS011;39160;48.580;7.756;2023-05-07T20:31:32;6.93;;;3.03;;
53271;SDS011;39160;48.580;7.756;2023-05-07T20:36:24;4.93;;;2.80;;
53271;SDS011;39160;48.580;7.756;2023-05-07T20:41:15;8.65;;;4.03;;
53271;SDS011;39160;48.580;7.756;2023-05-07T20:46:06;3.90;;;2.55;;
53271;SDS011;39160;48.580;7.756;2023-05-07T20:50:58;3.95;;;2.67;;
53271;SDS011;39160;48.580;7.756;2023-05-07T20:55:50;3.53;;;2.20;;
53271;SDS011;39160;48.580;7.756;2023-05-07T21:00:41;5.68;;;2.63;;
53271;SDS011;39160;48.580;7.756;2023-05-07T21:05:31;3.60;;;2.05;;
53271;SDS011;39160;48.580;7.756;2023-05-07T21:10:22;7.15;;;3.00;;
53271;SDS011;39160;48.580;7.756;2023-05-07T21:15:13;4.47;;;2.58;;
53271;SDS011;39160;48.580;7.756;2023-05-07T21:20:04;3.13;;;2.30;;
53271;SDS011;39160;48.580;7.756;2023-05-07T21:24:55;2.85;;;1.70;;
53271;SDS011;39160;48.580;7.756;2023-05-07T21:29:45;8.95;;;4.45;;
53271;SDS011;39160;48.580;7.756;2023-05-07T21:34:36;4.28;;;3.15;;
53271;SDS011;39160;48.580;7.756;2023-05-07T21:39:27;5.40;;;2.38;;
53271;SDS011;39160;48.580;7.756;2023-05-07T21:44:17;3.47;;;2.40;;
53271;SDS011;39160;48.580;7.756;2023-05-07T21:49:08;2.58;;;2.00;;
53271;SDS011;39160;48.580;7.756;2023-05-07T21:53:58;3.75;;;2.10;;
53271;SDS011;39160;48.580;7.756;2023-05-07T21:58:49;5.07;;;2.67;;
53271;SDS011;39160;48.580;7.756;2023-05-07T22:03:40;4.10;;;2.97;;
53271;SDS011;39160;48.580;7.756;2023-05-07T22:08:30;3.47;;;1.95;;
53271;SDS011;39160;48.580;7.756;2023-05-07T22:13:21;4.40;;;2.20;;
53271;SDS011;39160;48.580;7.756;2023-05-07T22:18:12;6.80;;;2.70;;
53271;SDS011;39160;48.580;7.756;2023-05-07T22:23:02;4.43;;;2.50;;
53271;SDS011;39160;48.580;7.756;2023-05-07T22:27:53;3.63;;;1.98;;
53271;SDS011;39160;48.580;7.756;2023-05-07T22:32:43;3.90;;;2.15;;
53271;SDS011;39160;48.580;7.756;2023-05-07T22:37:34;3.25;;;2.20;;
53271;SDS011;39160;48.580;7.756;2023-05-07T22:42:25;3.47;;;2.25;;
53271;SDS011;39160;48.580;7.756;2023-05-07T22:47:16;3.15;;;2.30;;
53271;SDS011;39160;48.580;7.756;2023-05-07T22:52:06;3.50;;;1.98;;
53271;SDS011;39160;48.580;7.756;2023-05-07T22:56:57;3.55;;;2.30;;
53271;SDS011;39160;48.580;7.756;2023-05-07T23:01:48;2.67;;;2.15;;
53271;SDS011;39160;48.580;7.756;2023-05-07T23:06:39;3.17;;;2.08;;
53271;SDS011;39160;48.580;7.756;2023-05-07T23:11:30;5.88;;;2.60;;
53271;SDS011;39160;48.580;7.756;2023-05-07T23:16:21;2.20;;;1.83;;
53271;SDS011;39160;48.580;7.756;2023-05-07T23:21:12;3.78;;;2.50;;
53271;SDS011;39160;48.580;7.756;2023-05-07T23:26:02;3.42;;;2.53;;
53271;SDS011;39160;48.580;7.756;2023-05-07T23:30:53;4.68;;;2.33;;
53271;SDS011;39160;48.580;7.756;2023-05-07T23:35:44;3.78;;;2.28;;
53271;SDS011;39160;48.580;7.756;2023-05-07T23:40:35;3.95;;;2.55;;
53271;SDS011;39160;48.580;7.756;2023-05-07T23:45:25;4.13;;;1.98;;
53271;SDS011;39160;48.580;7.756;2023-05-07T23:50:16;2.95;;;2.40;;
53271;SDS011;39160;48.580;7.756;2023-05-07T23:55:07;3.25;;;2.13;;
53271;SDS011;39160;48.580;7.756;2023-05-07T23:59:58;4.32;;;2.75;;
